TimePDT,TemperatureF,Dew PointF,Humidity,Sea Level PressureIn,VisibilityMPH,Wind Direction,Wind SpeedMPH,Gust SpeedMPH,PrecipitationIn,Events,Conditions,WindDirDegrees,DateUTC
12:53 AM,53.1,30.0,41,29.54,5.0,SSE,5.8,-,0.02,Rain,Light Rain,150,2013-09-29 07:53:00
1:53 AM,54.0,30.0,40,29.54,10.0,SSE,6.9,-,0.02,Rain,Light Rain,160,2013-09-29 08:53:00
2:53 AM,54.0,28.9,38,29.55,10.0,SSE,5.8,-,0.02,,Overcast,150,2013-09-29 09:53:00
3:53 AM,54.0,30.0,40,29.55,10.0,SSE,11.5,18.4,N/A,,Scattered Clouds,160,2013-09-29 10:53:00
4:53 AM,54.0,30.0,40,29.55,10.0,SSE,11.5,21.9,0.00,,Mostly Cloudy,150,2013-09-29 11:53:00
5:53 AM,54.0,30.0,40,29.56,10.0,SE,6.9,-,N/A,,Mostly Cloudy,140,2013-09-29 12:53:00
6:53 AM,55.0,30.0,38,29.57,10.0,SSE,10.4,16.1,N/A,,Overcast,150,2013-09-29 13:53:00
7:53 AM,55.9,30.0,37,29.56,10.0,SSE,6.9,16.1,N/A,,Overcast,150,2013-09-29 14:53:00
8:53 AM,55.9,30.0,37,29.57,10.0,SE,5.8,-,0.00,Rain,Light Rain,140,2013-09-29 15:53:00
9:53 AM,55.9,30.0,37,29.59,10.0,SSE,13.8,20.7,0.00,Rain,Light Rain,150,2013-09-29 16:53:00
10:53 AM,54.0,30.0,40,29.59,8.0,SE,8.1,-,0.03,Rain,Light Rain,140,2013-09-29 17:53:00
11:53 AM,54.0,30.0,40,29.59,5.0,SSE,11.5,18.4,0.04,Rain,Light Rain,150,2013-09-29 18:53:00
12:53 PM,54.0,30.0,40,29.58,7.0,SE,6.9,-,0.04,Rain,Light Rain,140,2013-09-29 19:53:00
1:53 PM,54.0,30.0,40,29.56,8.0,Variable,6.9,-,0.04,Rain,Light Rain,0,2013-09-29 20:53:00
2:53 PM,53.1,30.0,41,29.53,6.0,SE,8.1,16.1,0.06,Rain,Light Rain,130,2013-09-29 21:53:00
3:53 PM,53.1,30.0,41,29.48,10.0,East,5.8,-,0.05,Rain,Light Rain,100,2013-09-29 22:53:00
4:53 PM,53.1,30.0,41,29.42,10.0,ESE,6.9,-,0.01,Rain,Light Rain,110,2013-09-29 23:53:00
5:53 PM,53.1,30.0,41,29.33,8.0,ESE,8.1,-,0.03,Rain,Light Rain,110,2013-09-30 00:53:00
6:53 PM,54.0,48.9,83,29.25,10.0,ESE,8.1,-,0.00,,Overcast,110,2013-09-30 01:53:00
7:53 PM,54.0,50.0,86,29.19,8.0,Variable,5.8,-,0.05,Rain,Light Rain,0,2013-09-30 02:53:00
8:49 PM,55.4,51.8,88,29.28,1.8,South,11.5,23.0,0.14,Rain,Heavy Rain,190,2013-09-30 03:49:00
8:53 PM,55.9,51.1,84,29.29,2.0,South,8.1,26.5,0.15,Rain,Rain,180,2013-09-30 03:53:00
9:02 PM,55.4,51.8,88,29.29,4.0,South,10.4,19.6,0.01,Rain,Rain,180,2013-09-30 04:02:00
9:53 PM,54.0,50.0,86,29.36,6.0,South,9.2,21.9,0.07,Rain,Light Rain,170,2013-09-30 04:53:00
10:53 PM,54.0,48.0,80,29.42,10.0,SSE,10.4,16.1,0.06,,Mostly Cloudy,150,2013-09-30 05:53:00
11:53 PM,53.1,48.0,83,29.47,10.0,SSE,10.4,19.6,0.00,,Overcast,150,2013-09-30 06:53:00